Time;durP1;ratioP1;P1;durP2;ratioP2;P2;SDS_P1;SDS_P2;PMS_P1;PMS_P2;Temp;Humidity;BMP_temperature;BMP_pressure;BME280_temperature;BME280_humidity;BME280_pressure;Samples;Min_cycle;Max_cycle;Signal;HPM_P1;HPM_P2
2022/11/22 00:00:43;;;;;;;3.63;1.13;;;6.70;99.90;;;;;;5076229;28;20657;-47
2022/11/22 00:10:03;;;;;;;2.53;1.27;;;6.80;99.90;;;;;;5075539;28;20283;-47
2022/11/22 00:12:28;;;;;;;3.30;1.50;;;6.70;99.90;;;;;;5074680;28;20182;-47
2022/11/22 00:14:54;;;;;;;3.47;1.60;;;6.80;99.90;;;;;;5075220;28;20179;-48
2022/11/22 00:17:19;;;;;;;4.40;1.50;;;6.80;99.90;;;;;;5075201;28;20179;-47
2022/11/22 00:19:45;;;;;;;5.70;1.90;;;6.80;99.90;;;;;;5075532;28;20248;-47
2022/11/22 00:22:10;;;;;;;3.00;1.53;;;6.80;99.90;;;;;;5057516;28;20236;-47
2022/11/22 00:24:36;;;;;;;4.67;1.63;;;6.80;99.90;;;;;;5076279;28;20266;-47
2022/11/22 00:27:02;;;;;;;2.93;1.40;;;6.80;99.90;;;;;;5057603;28;20588;-46
2022/11/22 00:29:28;;;;;;;3.97;1.80;;;6.80;99.90;;;;;;5075682;28;20198;-47
2022/11/22 00:31:53;;;;;;;1.27;0.90;;;6.80;99.90;;;;;;5057947;28;20207;-46
2022/11/22 00:34:19;;;;;;;8.33;1.03;;;6.80;99.90;;;;;;5076448;28;20171;-46
2022/11/22 00:36:45;;;;;;;3.43;1.17;;;6.80;99.90;;;;;;5076119;28;20197;-47
2022/11/22 00:39:11;;;;;;;2.77;1.20;;;6.90;99.90;;;;;;5075821;28;20199;-47
2022/11/22 00:41:36;;;;;;;2.93;1.10;;;6.90;99.90;;;;;;5057906;28;20194;-49
2022/11/22 00:44:02;;;;;;;4.83;1.40;;;6.90;99.90;;;;;;5058185;28;20179;-48
2022/11/22 00:46:28;;;;;;;2.27;0.97;;;6.90;99.90;;;;;;5075889;28;20660;-48
2022/11/22 00:48:53;;;;;;;3.63;1.17;;;6.90;99.90;;;;;;5076453;28;20200;-48
2022/11/22 00:51:19;;;;;;;1.33;1.00;;;6.90;99.90;;;;;;5075515;28;20207;-46
2022/11/22 00:53:46;;;;;;;4.60;1.00;;;6.90;99.90;;;;;;5058091;28;20213;-47
2022/11/22 00:56:12;;;;;;;2.27;1.00;;;6.80;99.90;;;;;;5057960;28;20550;-47
2022/11/22 00:58:37;;;;;;;1.80;1.00;;;6.80;99.90;;;;;;5057977;28;20577;-47
2022/11/22 01:01:03;;;;;;;4.23;1.27;;;6.80;99.90;;;;;;5057847;28;20180;-49
2022/11/22 01:03:29;;;;;;;9.07;1.60;;;6.70;99.90;;;;;;5058942;28;20229;-48
2022/11/22 01:05:55;;;;;;;4.40;1.30;;;6.70;99.90;;;;;;5058725;28;20180;-47
2022/11/22 01:08:22;;;;;;;7.23;1.93;;;6.70;99.90;;;;;;5058075;28;20207;-46
2022/11/22 01:10:48;;;;;;;6.20;1.50;;;6.60;99.90;;;;;;5058213;28;20216;-49
2022/11/22 01:13:14;;;;;;;3.77;1.17;;;6.60;99.90;;;;;;5075755;28;20543;-48
2022/11/22 01:15:40;;;;;;;5.47;1.27;;;6.50;99.90;;;;;;5058109;28;20179;-49
2022/11/22 01:18:05;;;;;;;5.73;1.50;;;6.50;99.90;;;;;;5057881;28;20215;-47
2022/11/22 01:20:31;;;;;;;3.83;1.40;;;6.50;99.90;;;;;;5058571;28;20267;-46
2022/11/22 01:22:57;;;;;;;3.87;1.60;;;6.50;99.90;;;;;;5058109;28;20650;-46
2022/11/22 01:25:23;;;;;;;4.47;1.40;;;6.40;99.90;;;;;;5059389;28;20178;-48
2022/11/22 01:27:49;;;;;;;5.60;1.53;;;6.40;99.90;;;;;;5058460;28;20206;-47
2022/11/22 01:30:16;;;;;;;6.30;1.37;;;6.30;99.90;;;;;;5061739;28;20207;-48
2022/11/22 01:32:43;;;;;;;9.63;1.87;;;6.30;99.90;;;;;;5060951;28;20670;-41
2022/11/22 01:35:09;;;;;;;5.63;1.00;;;6.30;99.90;;;;;;5059710;28;20176;-46
2022/11/22 01:37:35;;;;;;;6.53;1.33;;;6.20;99.90;;;;;;5058465;28;20193;-47
2022/11/22 01:40:00;;;;;;;2.63;1.40;;;6.20;99.90;;;;;;5077029;28;20500;-47
2022/11/22 01:42:44;;;;;;;8.03;1.50;;;6.20;99.90;;;;;;5058863;28;20273;-45
2022/11/22 01:45:28;;;;;;;6.10;1.70;;;6.10;99.90;;;;;;5078029;28;20212;-48
2022/11/22 01:48:23;;;;;;;10.50;2.43;;;6.10;99.90;;;;;;5089982;22;20236;-44
2022/11/22 01:50:53;;;;;;;10.43;2.20;;;6.10;99.90;;;;;;5040004;28;20225;-42
2022/11/22 01:53:24;;;;;;;7.50;1.70;;;6.10;99.90;;;;;;5076112;28;20690;-46
2022/11/22 01:55:51;;;;;;;4.63;1.60;;;6.10;99.90;;;;;;5076357;28;20171;-44
2022/11/22 01:58:18;;;;;;;6.73;1.57;;;6.10;99.90;;;;;;5076221;28;20556;-44
2022/11/22 02:00:44;;;;;;;8.67;2.57;;;6.10;99.90;;;;;;5075913;28;20197;-45
2022/11/22 02:03:12;;;;;;;8.43;2.00;;;6.10;99.90;;;;;;5075937;28;20182;-43
2022/11/22 02:05:37;;;;;;;17.47;2.13;;;6.10;99.90;;;;;;5075856;28;20244;-44
2022/11/22 02:08:14;;;;;;;10.43;1.90;;;6.10;99.90;;;;;;5076068;28;20211;-43
2022/11/22 02:10:45;;;;;;;9.73;1.90;;;6.10;99.90;;;;;;5076011;28;20241;-46
2022/11/22 02:13:13;;;;;;;9.27;2.30;;;6.10;99.90;;;;;;5076030;28;20163;-44
2022/11/22 02:15:39;;;;;;;9.37;1.90;;;6.10;99.90;;;;;;5075722;28;20633;-44
2022/11/22 02:18:04;;;;;;;8.13;2.30;;;6.00;99.90;;;;;;5075725;28;20204;-46
2022/11/22 02:20:30;;;;;;;9.43;1.80;;;6.00;99.90;;;;;;5075890;28;20233;-43
2022/11/22 02:23:09;;;;;;;15.70;3.30;;;5.90;99.90;;;;;;5075565;28;20181;-46
2022/11/22 02:25:41;;;;;;;10.17;2.03;;;5.90;99.90;;;;;;5076064;28;20237;-44
2022/11/22 02:28:12;;;;;;;7.87;1.80;;;5.90;99.90;;;;;;5075553;28;20228;-42
2022/11/22 02:30:38;;;;;;;9.67;2.10;;;5.80;99.90;;;;;;5057254;28;20198;-44
2022/11/22 02:33:04;;;;;;;12.53;1.70;;;5.80;99.90;;;;;;5076181;28;20182;-44
2022/11/22 02:35:30;;;;;;;12.63;2.17;;;5.70;99.90;;;;;;5075323;28;20181;-45
2022/11/22 02:38:11;;;;;;;10.93;2.53;;;5.70;99.90;;;;;;5075368;28;20202;-42
2022/11/22 02:40:51;;;;;;;10.03;2.57;;;5.70;99.90;;;;;;5075034;28;20230;-44
2022/11/22 02:43:24;;;;;;;8.73;2.37;;;5.60;99.90;;;;;;5075464;28;20166;-45
2022/11/22 02:45:49;;;;;;;17.77;2.50;;;5.70;99.90;;;;;;5075109;28;20180;-45
2022/11/22 02:48:16;;;;;;;3.90;1.53;;;5.60;99.90;;;;;;5074884;28;20588;-45
2022/11/22 02:50:42;;;;;;;11.77;2.73;;;5.60;99.90;;;;;;5074942;28;20206;-46
2022/11/22 02:53:09;;;;;;;16.97;2.80;;;5.60;99.90;;;;;;5075000;28;20179;-45
2022/11/22 02:55:35;;;;;;;9.73;2.00;;;5.60;99.90;;;;;;5075082;28;20179;-44
2022/11/22 02:58:01;;;;;;;5.97;1.40;;;5.50;99.90;;;;;;5074831;28;20760;-46
2022/11/22 03:00:27;;;;;;;10.90;2.63;;;5.50;99.90;;;;;;5075046;28;20270;-46
2022/11/22 03:02:53;;;;;;;10.77;2.43;;;5.40;99.90;;;;;;5074773;28;20209;-45
2022/11/22 03:05:18;;;;;;;9.70;1.83;;;5.40;99.90;;;;;;5074624;28;20656;-45
2022/11/22 03:07:44;;;;;;;8.83;2.03;;;5.30;99.90;;;;;;5074649;28;20187;-45
2022/11/22 03:10:10;;;;;;;11.33;1.53;;;5.30;99.90;;;;;;5074545;28;20197;-45
2022/11/22 03:12:36;;;;;;;8.63;2.07;;;5.30;99.90;;;;;;5074890;28;20177;-41
2022/11/22 03:15:01;;;;;;;9.07;1.50;;;5.30;99.90;;;;;;5074653;28;20571;-46
2022/11/22 03:17:27;;;;;;;5.93;1.87;;;5.30;99.90;;;;;;5074428;28;20171;-44
2022/11/22 03:19:53;;;;;;;7.80;2.47;;;5.20;99.90;;;;;;5074641;28;20640;-45
2022/11/22 03:22:18;;;;;;;8.57;2.00;;;5.20;99.90;;;;;;5074713;28;20243;-47
2022/11/22 03:24:44;;;;;;;11.07;2.17;;;5.10;99.90;;;;;;5074322;28;20174;-43
2022/11/22 03:27:09;;;;;;;8.80;2.20;;;5.10;99.90;;;;;;5074329;28;20199;-44
2022/11/22 03:29:35;;;;;;;8.47;1.97;;;5.10;99.90;;;;;;5074208;28;20214;-44
2022/11/22 03:32:00;;;;;;;10.03;1.63;;;5.10;99.90;;;;;;5074361;28;20242;-46
2022/11/22 03:34:26;;;;;;;14.27;2.30;;;5.10;99.90;;;;;;5074390;28;20272;-43
2022/11/22 03:36:52;;;;;;;11.73;2.00;;;5.00;99.90;;;;;;5074162;28;20173;-45
2022/11/22 03:39:17;;;;;;;11.03;2.20;;;5.00;99.90;;;;;;5073955;28;20264;-46
2022/11/22 03:41:43;;;;;;;11.30;2.30;;;5.00;99.90;;;;;;5074131;28;20209;-47
2022/11/22 03:44:08;;;;;;;16.77;2.27;;;5.00;99.90;;;;;;5074022;28;20707;-45
2022/11/22 03:46:34;;;;;;;11.43;2.40;;;4.90;99.90;;;;;;5074636;28;20226;-46
2022/11/22 03:48:59;;;;;;;8.07;1.93;;;4.80;99.90;;;;;;5073882;28;20612;-45
2022/11/22 03:51:26;;;;;;;11.37;2.07;;;4.90;99.90;;;;;;5073094;28;20192;-45
2022/11/22 03:53:52;;;;;;;8.83;1.90;;;4.90;99.90;;;;;;5074044;28;20189;-45
2022/11/22 03:56:17;;;;;;;4.13;1.80;;;4.80;99.90;;;;;;5073859;28;20708;-44
2022/11/22 03:58:43;;;;;;;8.33;1.93;;;4.80;99.90;;;;;;5073627;28;20185;-45
2022/11/22 04:01:08;;;;;;;7.07;1.77;;;4.70;99.90;;;;;;5074227;28;20255;-46
2022/11/22 04:03:34;;;;;;;6.83;1.73;;;4.70;99.90;;;;;;5073643;28;20178;-43
2022/11/22 04:05:59;;;;;;;6.93;1.90;;;4.60;99.90;;;;;;5073470;28;20212;-45
2022/11/22 04:08:25;;;;;;;11.97;1.83;;;4.60;99.90;;;;;;5073452;28;20192;-45
2022/11/22 04:10:51;;;;;;;6.60;1.80;;;4.60;99.90;;;;;;5074109;28;20208;-44
2022/11/22 04:13:18;;;;;;;11.20;2.13;;;4.50;99.90;;;;;;5073456;28;20176;-45
2022/11/22 04:15:43;;;;;;;9.07;1.50;;;4.50;99.90;;;;;;5073525;28;20176;-45
2022/11/22 04:18:10;;;;;;;9.37;1.77;;;4.40;99.90;;;;;;5073467;28;20198;-45
2022/11/22 04:23:22;;;;;;;9.37;1.83;;;4.20;99.90;;;;;;5073432;28;20228;-45
2022/11/22 04:25:53;;;;;;;8.57;1.40;;;4.20;99.90;;;;;;5073568;28;20183;-45
2022/11/22 04:28:21;;;;;;;4.87;1.63;;;4.10;99.90;;;;;;5073265;28;20617;-46
2022/11/22 04:33:32;;;;;;;14.87;2.47;;;4.10;99.90;;;;;;5073878;28;20669;-42
2022/11/22 04:35:57;;;;;;;7.00;1.90;;;4.10;99.90;;;;;;5073995;28;20174;-44
2022/11/22 04:38:23;;;;;;;9.87;1.97;;;4.10;99.90;;;;;;5074593;28;20203;-42
2022/11/22 04:40:49;;;;;;;7.53;2.40;;;4.10;99.90;;;;;;5073944;28;20656;-44
2022/11/22 04:46:08;;;;;;;8.63;2.00;;;4.10;99.90;;;;;;5074589;28;20197;-45
2022/11/22 04:48:34;;;;;;;9.83;2.27;;;4.10;99.90;;;;;;5073777;28;20302;-44
2022/11/22 04:53:45;;;;;;;6.90;2.07;;;4.10;99.90;;;;;;5073549;28;20205;-46
2022/11/22 04:56:11;;;;;;;5.20;1.50;;;4.00;99.90;;;;;;5073926;28;20176;-45
2022/11/22 04:58:37;;;;;;;8.80;1.80;;;4.00;99.90;;;;;;5073831;28;20196;-43
2022/11/22 05:01:03;;;;;;;7.97;2.00;;;3.90;99.90;;;;;;5074160;28;20176;-44
2022/11/22 05:03:29;;;;;;;11.80;2.20;;;4.00;99.90;;;;;;5076170;28;20189;-45
2022/11/22 05:05:54;;;;;;;6.53;1.90;;;4.00;99.90;;;;;;5077864;28;20253;-46
2022/11/22 05:08:20;;;;;;;9.37;1.53;;;4.00;99.90;;;;;;5077553;28;20202;-46
2022/11/22 05:10:56;;;;;;;6.47;1.60;;;4.10;99.90;;;;;;5077503;28;20682;-45
2022/11/22 05:13:29;;;;;;;11.27;2.00;;;4.10;99.90;;;;;;5077078;28;20156;-45
2022/11/22 05:15:56;;;;;;;10.00;2.33;;;4.20;99.90;;;;;;5077096;28;20164;-44
2022/11/22 05:18:22;;;;;;;11.67;2.00;;;4.20;99.90;;;;;;5076688;28;20234;-45
2022/11/22 05:20:48;;;;;;;7.60;1.33;;;4.20;99.90;;;;;;5076837;28;20184;-44
2022/11/22 05:25:58;;;;;;;12.47;2.70;;;4.20;99.90;;;;;;5077203;28;20681;-43
2022/11/22 05:28:28;;;;;;;4.67;1.43;;;4.10;99.90;;;;;;5076580;28;20204;-43
2022/11/22 05:30:54;;;;;;;10.13;2.47;;;4.10;99.90;;;;;;5076938;28;20203;-43
2022/11/22 05:33:19;;;;;;;13.13;1.90;;;4.10;99.90;;;;;;5076809;28;20168;-44
2022/11/22 05:35:45;;;;;;;12.10;1.80;;;4.10;99.90;;;;;;5076768;28;20172;-44
2022/11/22 05:38:11;;;;;;;9.23;1.67;;;4.10;99.90;;;;;;5076705;28;20194;-44
2022/11/22 05:40:36;;;;;;;10.17;2.47;;;4.10;99.90;;;;;;5076915;28;20176;-43
2022/11/22 05:43:02;;;;;;;14.67;2.17;;;4.10;99.90;;;;;;5076479;28;20210;-46
2022/11/22 05:45:27;;;;;;;9.07;1.90;;;4.00;99.90;;;;;;5076483;28;20229;-46
2022/11/22 05:47:54;;;;;;;7.10;1.80;;;4.10;99.90;;;;;;5076378;28;20275;-44
2022/11/22 05:50:19;;;;;;;7.30;1.73;;;4.00;99.90;;;;;;5076475;28;20196;-41
2022/11/22 05:52:45;;;;;;;7.57;1.87;;;3.90;99.90;;;;;;5076328;28;20245;-44
2022/11/22 05:55:11;;;;;;;8.40;1.77;;;3.90;99.90;;;;;;5076426;28;20262;-44
2022/11/22 05:57:36;;;;;;;7.00;1.50;;;3.90;99.90;;;;;;5075957;28;20175;-44
2022/11/22 06:00:03;;;;;;;14.37;1.83;;;4.00;99.90;;;;;;5076238;28;20180;-41
2022/11/22 06:02:30;;;;;;;8.77;2.00;;;4.00;99.90;;;;;;5075848;28;20613;-44
2022/11/22 06:04:56;;;;;;;7.97;2.00;;;4.00;99.90;;;;;;5076162;28;20215;-43
2022/11/22 06:07:21;;;;;;;5.93;1.87;;;3.90;99.90;;;;;;5075894;28;20532;-44
2022/11/22 06:09:47;;;;;;;7.10;1.40;;;3.90;99.90;;;;;;5075667;28;20206;-44
2022/11/22 06:12:12;;;;;;;9.80;1.40;;;3.90;99.90;;;;;;5075994;28;20659;-45
2022/11/22 06:14:38;;;;;;;8.87;1.70;;;3.90;99.90;;;;;;5075133;28;20230;-44
2022/11/22 06:17:04;;;;;;;7.57;2.00;;;3.80;99.90;;;;;;5075729;28;20540;-44
2022/11/22 06:19:29;;;;;;;6.63;1.60;;;3.80;99.90;;;;;;5075420;28;20195;-45
2022/11/22 06:21:55;;;;;;;6.53;1.67;;;3.80;99.90;;;;;;5075759;28;20250;-43
2022/11/22 06:24:20;;;;;;;9.07;1.43;;;3.80;99.90;;;;;;5075730;28;20584;-43
2022/11/22 06:26:46;;;;;;;5.87;1.70;;;3.70;99.90;;;;;;5075731;28;20183;-45
2022/11/22 06:29:11;;;;;;;5.80;1.50;;;3.70;99.90;;;;;;5057989;28;20204;-43
2022/11/22 06:31:37;;;;;;;8.87;1.47;;;3.60;99.90;;;;;;5075803;28;20253;-45
2022/11/22 06:34:02;;;;;;;8.50;1.83;;;3.60;99.90;;;;;;5075398;28;20172;-44
2022/11/22 06:36:30;;;;;;;7.43;2.17;;;3.50;99.90;;;;;;5075662;28;20263;-44
2022/11/22 06:38:56;;;;;;;7.80;1.90;;;3.50;99.90;;;;;;5075133;28;20191;-44
2022/11/22 06:41:24;;;;;;;4.27;1.60;;;3.40;99.90;;;;;;5075464;28;20245;-43
2022/11/22 06:43:51;;;;;;;10.60;2.67;;;3.40;99.90;;;;;;5075230;28;20176;-43
2022/11/22 06:46:18;;;;;;;8.87;2.37;;;3.40;99.90;;;;;;5074940;28;20686;-43
2022/11/22 06:48:44;;;;;;;8.67;2.47;;;3.50;99.90;;;;;;5075261;28;20199;-45
2022/11/22 06:51:13;;;;;;;9.93;1.97;;;3.50;99.90;;;;;;5075307;28;20326;-43
2022/11/22 06:53:39;;;;;;;11.20;2.30;;;3.50;99.90;;;;;;5074996;28;20172;-44
2022/11/22 06:56:11;;;;;;;5.33;1.63;;;3.50;99.90;;;;;;5076134;28;20199;-42
2022/11/22 06:58:37;;;;;;;7.53;1.97;;;3.50;99.90;;;;;;5075224;28;20195;-43
2022/11/22 07:01:05;;;;;;;7.50;1.80;;;3.50;99.90;;;;;;5075109;28;20548;-44
2022/11/22 07:03:30;;;;;;;9.40;2.33;;;3.40;99.90;;;;;;5075041;28;20179;-45
2022/11/22 07:05:56;;;;;;;9.60;2.10;;;3.40;99.90;;;;;;5074653;28;20270;-44
2022/11/22 07:08:23;;;;;;;7.33;2.23;;;3.30;99.90;;;;;;5074888;28;20239;-45
2022/11/22 07:10:49;;;;;;;9.47;2.10;;;3.30;99.90;;;;;;5074825;28;20208;-44
2022/11/22 07:13:14;;;;;;;11.50;2.33;;;3.20;99.90;;;;;;5074504;28;20262;-44
2022/11/22 07:15:40;;;;;;;9.73;2.37;;;3.20;99.90;;;;;;5075369;28;20190;-44
2022/11/22 07:18:05;;;;;;;8.67;2.93;;;3.20;99.90;;;;;;5074901;28;20195;-44
2022/11/22 07:20:31;;;;;;;6.63;2.37;;;3.10;99.90;;;;;;5074677;28;20282;-44
2022/11/22 07:22:56;;;;;;;12.17;3.07;;;3.10;99.90;;;;;;5056550;28;20211;-44
2022/11/22 07:25:22;;;;;;;7.70;2.47;;;3.10;99.90;;;;;;5074579;28;20195;-44
2022/11/22 07:27:50;;;;;;;8.30;2.20;;;3.10;99.90;;;;;;5074179;28;20203;-44
2022/11/22 07:30:16;;;;;;;9.73;2.20;;;3.10;99.90;;;;;;5074199;28;20571;-43
2022/11/22 07:32:46;;;;;;;9.63;2.37;;;3.20;99.90;;;;;;5074131;28;20195;-43
2022/11/22 07:35:11;;;;;;;6.07;1.90;;;3.20;99.90;;;;;;5074439;28;20168;-45
2022/11/22 07:37:37;;;;;;;4.10;1.33;;;3.20;99.90;;;;;;5074041;28;20623;-43
2022/11/22 07:40:03;;;;;;;5.23;1.33;;;3.30;99.90;;;;;;5074374;28;20183;-45
2022/11/22 07:42:28;;;;;;;7.30;1.40;;;3.30;99.90;;;;;;5074323;28;20191;-43
2022/11/22 07:44:54;;;;;;;6.40;1.50;;;3.40;99.90;;;;;;5074062;28;20175;-45
2022/11/22 07:47:19;;;;;;;5.37;1.50;;;3.40;99.90;;;;;;5074035;28;20614;-44
2022/11/22 07:49:45;;;;;;;5.60;1.73;;;3.30;99.90;;;;;;5074477;28;20612;-49
2022/11/22 07:52:10;;;;;;;9.63;1.67;;;3.30;99.90;;;;;;5074943;28;20203;-50
2022/11/22 07:54:36;;;;;;;3.93;1.50;;;3.40;99.90;;;;;;5074938;28;20179;-50
2022/11/22 07:57:01;;;;;;;9.67;1.83;;;3.30;99.90;;;;;;5075548;28;20709;-49
2022/11/22 07:59:27;;;;;;;6.17;1.47;;;3.30;99.90;;;;;;5074907;28;20667;-49
2022/11/22 08:01:52;;;;;;;8.07;1.60;;;3.30;99.90;;;;;;5075292;28;20316;-49
2022/11/22 08:04:18;;;;;;;6.87;1.60;;;3.40;99.90;;;;;;5075096;28;20183;-49
2022/11/22 08:06:44;;;;;;;8.40;1.70;;;3.40;99.90;;;;;;5075128;28;20179;-48
2022/11/22 08:09:10;;;;;;;6.97;1.47;;;3.50;99.90;;;;;;5074515;28;20202;-48
2022/11/22 08:11:35;;;;;;;6.37;1.57;;;3.50;99.90;;;;;;5074526;28;20663;-49
2022/11/22 08:14:01;;;;;;;4.37;1.60;;;3.50;99.90;;;;;;5074597;28;20178;-49
2022/11/22 08:16:27;;;;;;;3.30;1.20;;;3.50;99.90;;;;;;5074505;28;20225;-49
2022/11/22 08:18:52;;;;;;;8.00;1.73;;;3.60;99.90;;;;;;5074251;28;20199;-49
2022/11/22 08:21:18;;;;;;;10.77;1.60;;;3.60;99.90;;;;;;5074130;28;20266;-50
2022/11/22 08:23:45;;;;;;;6.33;1.40;;;3.70;99.90;;;;;;5074160;28;20183;-50
2022/11/22 08:26:14;;;;;;;8.47;1.77;;;3.70;99.90;;;;;;5074210;28;20188;-49
2022/11/22 08:28:40;;;;;;;8.10;1.80;;;3.80;99.90;;;;;;5074120;28;20195;-50
2022/11/22 08:31:11;;;;;;;11.37;1.77;;;3.90;99.90;;;;;;5075095;28;20295;-47
2022/11/22 08:33:36;;;;;;;6.67;1.63;;;4.00;99.90;;;;;;5076416;28;20156;-49
2022/11/22 08:36:02;;;;;;;5.30;1.50;;;4.20;99.90;;;;;;5075985;28;20541;-49
2022/11/22 08:38:28;;;;;;;7.13;1.30;;;4.40;99.90;;;;;;5075594;28;20203;-50
2022/11/22 08:40:54;;;;;;;7.80;1.83;;;4.60;99.90;;;;;;5076651;28;20171;-50
2022/11/22 08:43:20;;;;;;;8.23;1.33;;;4.70;99.90;;;;;;5075370;28;20175;-50
2022/11/22 08:45:53;;;;;;;7.03;1.27;;;4.90;99.90;;;;;;5075668;28;20202;-50
2022/11/22 08:48:19;;;;;;;4.37;1.10;;;4.90;99.90;;;;;;5075072;28;20242;-49
2022/11/22 08:50:56;;;;;;;6.33;1.10;;;5.00;99.90;;;;;;5074515;28;20199;-51
2022/11/22 08:53:22;;;;;;;8.50;1.83;;;5.20;99.90;;;;;;5074277;28;20229;-48
2022/11/22 08:55:48;;;;;;;8.10;1.73;;;5.40;99.90;;;;;;5074424;28;20609;-50
2022/11/22 08:58:14;;;;;;;5.87;1.30;;;5.50;99.90;;;;;;5074640;28;20242;-50
2022/11/22 09:00:40;;;;;;;9.37;1.60;;;5.60;99.90;;;;;;5075289;28;20267;-51
2022/11/22 09:03:05;;;;;;;8.00;1.77;;;5.80;99.90;;;;;;5074507;28;20244;-50
2022/11/22 09:05:31;;;;;;;7.67;1.50;;;5.80;99.90;;;;;;5074938;28;20179;-50
2022/11/22 09:07:57;;;;;;;6.07;1.30;;;5.90;99.90;;;;;;5075249;28;20195;-49
2022/11/22 09:10:23;;;;;;;5.73;1.33;;;6.00;99.90;;;;;;5057658;28;20228;-50
2022/11/22 09:12:49;;;;;;;5.67;1.73;;;6.00;99.90;;;;;;5075543;28;20171;-50
2022/11/22 09:15:15;;;;;;;7.23;1.23;;;6.10;99.90;;;;;;5075875;28;20662;-50
2022/11/22 09:17:42;;;;;;;10.03;1.83;;;6.10;99.90;;;;;;5075704;28;20230;-50
2022/11/22 09:20:08;;;;;;;8.43;1.60;;;6.20;99.90;;;;;;5076366;28;20177;-50
2022/11/22 09:22:34;;;;;;;6.13;2.07;;;6.20;99.90;;;;;;5076718;28;20175;-50
2022/11/22 09:25:00;;;;;;;4.87;1.60;;;6.30;99.90;;;;;;5077593;28;20176;-50
2022/11/22 09:27:26;;;;;;;4.67;1.70;;;6.40;99.90;;;;;;5078719;28;20205;-50
2022/11/22 09:29:51;;;;;;;7.67;2.13;;;6.40;99.90;;;;;;5076764;28;20282;-51
2022/11/22 09:32:17;;;;;;;5.83;1.70;;;6.50;99.90;;;;;;5076228;28;20201;-51
2022/11/22 09:34:43;;;;;;;4.87;2.20;;;6.60;99.90;;;;;;5075493;28;20263;-51
2022/11/22 09:37:08;;;;;;;5.30;2.10;;;6.60;99.90;;;;;;5076051;28;20200;-49
2022/11/22 09:39:34;;;;;;;3.63;1.93;;;6.70;99.90;;;;;;5057872;28;20193;-50
2022/11/22 09:42:10;;;;;;;7.03;3.27;;;6.70;99.90;;;;;;5075305;28;20595;-49
2022/11/22 09:44:57;;;;;;;3.47;1.80;;;6.80;99.90;;;;;;5075268;28;20168;-50
2022/11/22 09:47:38;;;;;;;4.60;1.33;;;6.80;99.90;;;;;;5075677;28;20221;-48
2022/11/22 09:50:28;;;;;;;3.70;1.20;;;6.90;99.90;;;;;;5058675;28;20186;-49
2022/11/22 09:53:03;;;;;;;4.57;1.47;;;6.90;99.90;;;;;;5078296;28;20222;-50
2022/11/22 09:55:55;;;;;;;1.67;0.90;;;7.00;99.90;;;;;;5078222;28;20168;-50
2022/11/22 09:58:35;;;;;;;2.13;0.93;;;7.00;99.90;;;;;;5069330;28;20624;-50
2022/11/22 10:01:07;;;;;;;2.03;1.00;;;7.10;99.90;;;;;;5082396;28;20669;-50
2022/11/22 10:03:56;;;;;;;2.00;0.70;;;7.10;99.90;;;;;;5082643;28;20237;-50
2022/11/22 10:06:34;;;;;;;2.13;0.70;;;7.20;99.90;;;;;;5082696;28;20211;-50
2022/11/22 10:09:31;;;;;;;2.33;0.80;;;7.10;99.90;;;;;;5081938;28;20201;-50
2022/11/22 10:12:02;;;;;;;3.13;1.10;;;7.20;99.90;;;;;;5081444;28;20207;-49
2022/11/22 10:14:51;;;;;;;4.53;1.20;;;7.20;99.90;;;;;;5063236;28;20232;-51
2022/11/22 10:17:37;;;;;;;3.47;1.10;;;7.20;99.90;;;;;;5080894;28;20637;-50
2022/11/22 10:20:31;;;;;;;4.53;1.47;;;7.20;99.90;;;;;;5081046;28;20202;-49
2022/11/22 10:22:57;;;;;;;2.43;1.70;;;7.30;99.90;;;;;;5079965;28;20174;-50
2022/11/22 10:25:38;;;;;;;3.43;1.80;;;7.30;99.90;;;;;;5080283;28;20214;-51
2022/11/22 10:28:17;;;;;;;3.50;1.20;;;7.30;99.90;;;;;;5079989;28;20197;-50
2022/11/22 10:30:58;;;;;;;3.43;1.30;;;7.40;99.90;;;;;;5079857;28;20194;-50
2022/11/22 10:33:50;;;;;;;5.57;1.13;;;7.40;99.90;;;;;;5079258;28;20171;-50
2022/11/22 10:36:31;;;;;;;4.37;1.17;;;7.50;99.90;;;;;;5079245;28;20277;-50
2022/11/22 10:39:13;;;;;;;5.10;1.40;;;7.50;99.90;;;;;;5079080;28;20252;-49
2022/11/22 10:41:53;;;;;;;4.07;1.17;;;7.60;99.90;;;;;;5079824;28;20170;-50
2022/11/22 10:44:42;;;;;;;4.57;1.37;;;7.60;99.90;;;;;;5078403;28;20174;-50
2022/11/22 10:47:08;;;;;;;1.00;0.80;;;7.70;99.90;;;;;;5078831;28;20655;-50
2022/11/22 10:49:52;;;;;;;1.37;0.80;;;7.80;99.90;;;;;;5078395;28;20210;-51
2022/11/22 10:52:20;;;;;;;2.13;0.80;;;7.90;99.90;;;;;;5078463;28;20206;-50
2022/11/22 10:55:22;;;;;;;2.77;1.00;;;7.90;99.90;;;;;;5078191;28;20568;-50
2022/11/22 10:58:01;;;;;;;1.10;0.97;;;7.90;99.90;;;;;;5078454;28;20301;-51
2022/11/22 11:00:30;;;;;;;1.43;0.87;;;8.00;99.90;;;;;;5077987;28;20174;-51
2022/11/22 11:03:29;;;;;;;1.40;0.87;;;8.00;99.90;;;;;;5078379;28;20210;-50
2022/11/22 11:06:03;;;;;;;2.10;0.90;;;8.10;99.90;;;;;;5078052;28;20171;-50
2022/11/22 11:08:49;;;;;;;1.47;1.10;;;8.20;99.90;;;;;;5078816;28;20212;-50
2022/11/22 11:11:15;;;;;;;1.10;0.83;;;8.30;99.90;;;;;;5078844;28;20194;-50
2022/11/22 11:13:48;;;;;;;1.73;0.70;;;8.30;99.90;;;;;;5078395;28;20180;-50
2022/11/22 11:16:21;;;;;;;2.13;0.80;;;8.40;99.90;;;;;;5078135;28;20164;-50
2022/11/22 11:18:57;;;;;;;2.37;0.90;;;8.40;99.90;;;;;;5078472;28;20200;-50
2022/11/22 11:21:22;;;;;;;3.23;1.00;;;8.50;99.90;;;;;;5079242;28;20171;-49
2022/11/22 11:23:48;;;;;;;0.43;0.40;;;8.40;99.90;;;;;;5078280;28;20187;-49
2022/11/22 11:26:29;;;;;;;0.93;0.53;;;8.50;99.90;;;;;;5059370;28;20183;-50
2022/11/22 11:29:27;;;;;;;2.47;0.50;;;8.50;99.90;;;;;;5077758;28;20214;-50
2022/11/22 11:32:12;;;;;;;0.40;0.40;;;8.50;99.90;;;;;;5049310;28;20227;-50
2022/11/22 11:34:43;;;;;;;1.73;0.40;;;8.50;99.90;;;;;;5077975;28;20187;-48
2022/11/22 11:37:35;;;;;;;1.20;0.60;;;8.60;99.90;;;;;;5078508;28;20620;-50
2022/11/22 11:40:26;;;;;;;1.00;0.40;;;8.60;99.90;;;;;;5076868;28;20235;-51
2022/11/22 11:43:20;;;;;;;0.30;0.30;;;8.60;99.90;;;;;;5077926;28;20559;-50
2022/11/22 11:45:47;;;;;;;0.83;0.50;;;8.70;99.90;;;;;;5077040;28;20186;-48
2022/11/22 11:48:26;;;;;;;1.47;0.60;;;8.70;99.90;;;;;;5076462;28;20219;-49
2022/11/22 11:51:05;;;;;;;1.13;0.43;;;8.70;99.90;;;;;;5076943;28;20183;-49
2022/11/22 11:53:30;;;;;;;0.30;0.30;;;8.70;99.90;;;;;;5076831;28;20176;-49
2022/11/22 11:56:17;;;;;;;3.93;0.30;;;8.70;99.90;;;;;;5076274;28;20179;-51
2022/11/22 11:58:50;;;;;;;0.53;0.30;;;8.80;99.90;;;;;;5075739;28;20206;-49
2022/11/22 12:01:19;;;;;;;1.07;0.40;;;8.80;99.90;;;;;;5075411;28;20677;-49
2022/11/22 12:03:55;;;;;;;0.87;0.47;;;8.80;99.90;;;;;;5075716;28;20187;-48
2022/11/22 12:06:26;;;;;;;1.63;0.50;;;8.80;99.90;;;;;;5075682;28;20168;-51
2022/11/22 12:08:51;;;;;;;1.17;0.47;;;8.70;99.90;;;;;;5075493;28;20667;-50
2022/11/22 12:11:42;;;;;;;0.40;0.40;;;8.80;99.90;;;;;;5075499;28;20203;-50
2022/11/22 12:14:12;;;;;;;0.93;0.30;;;8.80;99.90;;;;;;5074058;28;20199;-51
2022/11/22 12:16:48;;;;;;;0.47;0.47;;;8.80;99.90;;;;;;5075155;28;20187;-50
2022/11/22 12:19:54;;;;;;;0.40;0.40;;;8.80;99.90;;;;;;5074528;28;20206;-50
2022/11/22 12:22:33;;;;;;;0.30;0.30;;;8.80;99.90;;;;;;5075065;28;20195;-50
2022/11/22 12:25:30;;;;;;;3.03;0.50;;;8.80;99.90;;;;;;5077889;28;20171;-52
2022/11/22 12:27:56;;;;;;;1.10;0.53;;;8.80;99.90;;;;;;5078337;28;20261;-50
2022/11/22 12:30:23;;;;;;;0.90;0.40;;;8.80;99.90;;;;;;5077547;28;20346;-50
2022/11/22 12:32:59;;;;;;;1.13;0.50;;;8.80;99.90;;;;;;5077576;28;20254;-51
2022/11/22 12:35:26;;;;;;;0.30;0.30;;;8.80;99.90;;;;;;5077855;28;20582;-50
2022/11/22 12:38:13;;;;;;;0.70;0.50;;;8.80;99.90;;;;;;5059673;28;20191;-49
2022/11/22 12:40:42;;;;;;;0.40;0.40;;;8.80;99.90;;;;;;5077962;28;20190;-50
2022/11/22 12:43:19;;;;;;;0.57;0.40;;;8.80;99.90;;;;;;5077933;28;20172;-50
2022/11/22 12:45:54;;;;;;;0.53;0.50;;;8.80;99.90;;;;;;5077590;28;20175;-49
2022/11/22 12:48:27;;;;;;;0.70;0.40;;;8.80;99.90;;;;;;5077402;28;20218;-50
2022/11/22 12:50:58;;;;;;;0.40;0.30;;;8.80;99.90;;;;;;5077862;28;20248;-51
2022/11/22 12:53:30;;;;;;;1.47;0.50;;;8.80;99.90;;;;;;5059435;28;20167;-50
2022/11/22 12:56:11;;;;;;;2.70;0.50;;;8.80;99.90;;;;;;5077809;28;20163;-51
2022/11/22 12:58:51;;;;;;;0.80;0.50;;;8.70;99.90;;;;;;5077578;28;20567;-51
2022/11/22 13:01:28;;;;;;;0.30;0.23;;;8.70;99.90;;;;;;5077560;28;20199;-49
2022/11/22 13:04:09;;;;;;;0.87;0.30;;;8.70;99.90;;;;;;5077933;28;20639;-50
2022/11/22 13:06:50;;;;;;;0.30;0.30;;;8.70;99.90;;;;;;5077944;28;20619;-48
2022/11/22 13:09:32;;;;;;;0.70;0.50;;;8.70;99.90;;;;;;5077857;28;20195;-51
2022/11/22 13:12:11;;;;;;;0.27;0.20;;;8.60;99.90;;;;;;5077588;28;20192;-49
2022/11/22 13:14:53;;;;;;;0.30;0.30;;;8.70;99.90;;;;;;5078646;28;20160;-51
2022/11/22 13:17:20;;;;;;;0.30;0.30;;;8.70;99.90;;;;;;5078176;28;20176;-51
2022/11/22 13:19:54;;;;;;;0.30;0.30;;;8.70;99.90;;;;;;5077696;28;20698;-51
2022/11/22 13:22:34;;;;;;;1.43;0.40;;;8.70;99.90;;;;;;5077618;28;20180;-49
2022/11/22 13:25:18;;;;;;;0.30;0.30;;;8.70;99.90;;;;;;5080884;28;20167;-50
2022/11/22 13:27:47;;;;;;;0.20;0.20;;;8.70;99.90;;;;;;5081602;28;20198;-49
2022/11/22 13:30:22;;;;;;;0.50;0.30;;;8.70;99.90;;;;;;5080963;28;20181;-50